Sirma — PJLU — position and weather

sailwx.info

Track history (hours):
 
Tides and Currents Weather Stations Pressure Air Temp Water Temp Dewpoint Dewpoint Depression Visibility Wind Speed Wind Dir Waves Ship Positions

Sirma

Last reported at 2017-Oct-06 17:49 UTC. Time now 2017-Oct-17 17:18 UTC.
Position N 39°34' E 002°39'.
Warning: this ship's position is 10 days out of date.

Length 18 m.

Type: Pleasure craft. MMSI: 306053000.

Date/timePositionNaut miles runAvg speedWind from/ knotsBaromVisibWave heightAir tempDewpointWater temp
2017-Oct-06 17:49N 39°34' E 002°39'0 0.0
2017-Oct-06 17:28N 39°34' E 002°39'0 0.0
2017-Oct-06 16:58N 39°34' E 002°39'0 0.0
2017-Oct-06 16:28N 39°34' E 002°39'1 2.3
2017-Oct-06 16:00N 39°33' E 002°38'3 5.2
2017-Oct-06 15:30N 39°31' E 002°36'3 5.2
2017-Oct-06 15:00N 39°29' E 002°34'2 0.8
2017-Oct-06 12:27N 39°28' E 002°31'2 3.6
2017-Oct-06 12:00N 39°28' E 002°33'3 5.9
2017-Oct-06 11:30N 39°27' E 002°37'2 4.3
2017-Oct-06 11:00N 39°27' E 002°40'4 7.5
2017-Oct-06 10:30N 39°30' E 002°40'2 4.8
2017-Oct-06 10:00N 39°33' E 002°39'1 2.5
2017-Oct-06 09:29N 39°34' E 002°39'0 0.0
2017-Oct-06 08:59N 39°34' E 002°39'0 0.0
2017-Oct-06 08:29N 39°34' E 002°39'0 0.0
2017-Oct-06 07:59N 39°34' E 002°39'0 0.0
2017-Oct-06 07:29N 39°34' E 002°39'0 0.0
2017-Oct-06 06:59N 39°34' E 002°39'0 0.0
2017-Oct-06 06:29N 39°34' E 002°39'0 0.0
2017-Oct-06 05:59N 39°34' E 002°39'0 0.0
2017-Oct-06 05:29N 39°34' E 002°39'0 0.0
2017-Oct-06 04:59N 39°34' E 002°39'0 0.0
2017-Oct-06 04:29N 39°34' E 002°39'0 0.0
2017-Oct-06 03:59N 39°34' E 002°39'0 0.0
2017-Oct-06 03:29N 39°34' E 002°39'0 0.0
2017-Oct-06 02:59N 39°34' E 002°39'0 0.0
2017-Oct-06 02:29N 39°34' E 002°39'0 0.0
2017-Oct-06 01:59N 39°34' E 002°39'0 0.0
2017-Oct-06 01:29N 39°34' E 002°39'0 0.0
2017-Oct-06 00:59N 39°34' E 002°39'0 0.0
2017-Oct-06 00:29N 39°34' E 002°39'0 0.0
2017-Oct-05 23:59N 39°34' E 002°39'0 0.0
2017-Oct-05 23:29N 39°34' E 002°39'0 0.0
2017-Oct-05 22:59N 39°34' E 002°39'0 0.0
2017-Oct-05 22:29N 39°34' E 002°39'0 0.0
2017-Oct-05 21:56N 39°34' E 002°39'0 0.0
2017-Oct-05 21:29N 39°34' E 002°39'0 0.0
2017-Oct-05 20:59N 39°34' E 002°39'0 0.0
2017-Oct-05 20:29N 39°34' E 002°39'0 0.0
2017-Oct-05 19:59N 39°34' E 002°39'0 0.0
2017-Oct-05 19:29N 39°34' E 002°39'0 0.0
2017-Oct-05 18:59N 39°34' E 002°39'0 0.0
2017-Oct-05 18:29N 39°34' E 002°39'0 0.0
2017-Oct-05 17:59N 39°34' E 002°39'0 0.0
2017-Oct-05 17:29N 39°34' E 002°39'0 0.0
2017-Oct-05 16:59N 39°34' E 002°39'0 0.0
2017-Oct-05 15:30N 39°34' E 002°39'0 0.1
2017-Oct-05 15:00N 39°34' E 002°39'0 0.1
2017-Oct-05 14:30N 39°34' E 002°39'0 0.1
2017-Oct-05 14:00N 39°34' E 002°39'0 0.0
2017-Oct-05 13:07N 39°34' E 002°39'0 0.0
2017-Oct-05 12:58N 39°34' E 002°39'0 0.0
2017-Oct-05 12:28N 39°34' E 002°39'0 0.0
2017-Oct-05 11:58N 39°34' E 002°39'0 0.0
2017-Oct-05 11:28N 39°34' E 002°39'0 0.0
2017-Oct-05 10:58N 39°34' E 002°39'0 0.0
2017-Oct-05 10:28N 39°34' E 002°39'0 0.0
2017-Oct-05 09:58N 39°34' E 002°39'0 0.0
2017-Oct-05 09:28N 39°34' E 002°39'0 0.0
2017-Oct-05 08:58N 39°34' E 002°39'0 0.0
2017-Oct-05 08:28N 39°34' E 002°39'0 0.0
2017-Oct-05 07:58N 39°34' E 002°39'0 0.0
2017-Oct-05 07:28N 39°34' E 002°39'0 0.0
2017-Oct-05 06:58N 39°34' E 002°39'0 0.0
2017-Oct-05 06:28N 39°34' E 002°39'0 0.0
2017-Oct-05 05:55N 39°34' E 002°39'0 0.0
2017-Oct-05 05:28N 39°34' E 002°39'0 0.0
2017-Oct-05 04:58N 39°34' E 002°39'0 0.0
2017-Oct-05 04:28N 39°34' E 002°39'0 0.0
2017-Oct-05 03:58N 39°34' E 002°39'0 0.0
2017-Oct-05 03:28N 39°34' E 002°39'0 0.0
2017-Oct-05 02:58N 39°34' E 002°39'0 0.0
2017-Oct-05 02:28N 39°34' E 002°39'0 0.0
2017-Oct-05 01:58N 39°34' E 002°39'0 0.0
2017-Oct-05 01:28N 39°34' E 002°39'0 0.0
2017-Oct-05 00:58N 39°34' E 002°39'0 0.0
2017-Oct-05 00:28N 39°34' E 002°39'0 0.0
2017-Oct-04 23:58N 39°34' E 002°39'0 0.0
2017-Oct-04 23:28N 39°34' E 002°39'0 0.0
2017-Oct-04 22:58N 39°34' E 002°39'0 0.0
2017-Oct-04 22:28N 39°34' E 002°39'0 0.0
2017-Oct-04 21:58N 39°34' E 002°39'0 0.0
2017-Oct-04 21:28N 39°34' E 002°39'0 0.0
2017-Oct-04 20:59N 39°34' E 002°39'0 0.0
2017-Oct-04 20:29N 39°34' E 002°39'0 0.0
2017-Oct-04 19:59N 39°34' E 002°39'0 0.0
2017-Oct-04 19:29N 39°34' E 002°39'0 0.0
2017-Oct-04 18:59N 39°34' E 002°39'0 0.0
2017-Oct-04 18:28N 39°34' E 002°39'0 0.0
2017-Oct-04 17:58N 39°34' E 002°39'0 0.0
2017-Oct-04 17:29N 39°34' E 002°39'0 0.0
2017-Oct-04 16:59N 39°34' E 002°39'0 0.0
2017-Oct-04 16:29N 39°34' E 002°39'0 0.0
2017-Oct-04 15:59N 39°34' E 002°39'0 0.0
2017-Oct-04 15:29N 39°34' E 002°39'0 0.0
2017-Oct-04 14:59N 39°34' E 002°39'0 0.0
2017-Oct-04 14:29N 39°34' E 002°39'0 0.0
2017-Oct-04 14:01N 39°34' E 002°39'0 0.0
2017-Oct-04 13:28N 39°34' E 002°39'0 0.0
2017-Oct-04 13:01N 39°34' E 002°39'0 0.0
2017-Oct-04 12:30N 39°34' E 002°39'0 0.0
2017-Oct-04 12:00N 39°34' E 002°39'0 0.0
2017-Oct-04 11:30N 39°34' E 002°39'0 0.0
2017-Oct-04 11:00N 39°34' E 002°39'0 0.0
2017-Oct-04 10:30N 39°34' E 002°39'0 0.0
2017-Oct-04 10:00N 39°34' E 002°39'0 0.0
2017-Oct-04 09:30N 39°34' E 002°39'0 0.0
2017-Oct-04 09:00N 39°34' E 002°39'0 0.0
2017-Oct-04 08:30N 39°34' E 002°39'0 0.0
2017-Oct-04 08:00N 39°34' E 002°39'0 0.0
2017-Oct-04 07:30N 39°34' E 002°39'0 0.0
2017-Oct-04 07:00N 39°34' E 002°39'0 0.0
2017-Oct-04 06:30N 39°34' E 002°39'0 0.0
2017-Oct-04 06:00N 39°34' E 002°39'0 0.0
2017-Oct-04 05:30N 39°34' E 002°39'0 0.0
2017-Oct-04 05:00N 39°34' E 002°39'0 0.0
2017-Oct-04 04:30N 39°34' E 002°39'0 0.0
2017-Oct-04 04:00N 39°34' E 002°39'0 0.0
2017-Oct-04 03:30N 39°34' E 002°39'0 0.0
2017-Oct-04 03:00N 39°34' E 002°39'0 0.0
2017-Oct-04 02:30N 39°34' E 002°39'0 0.0
2017-Oct-04 02:00N 39°34' E 002°39'0 0.0
2017-Oct-04 01:30N 39°34' E 002°39'0 0.0
2017-Oct-04 01:00N 39°34' E 002°39'0 0.0
2017-Oct-04 00:30N 39°34' E 002°39'0 0.0
2017-Oct-04 00:00N 39°34' E 002°39'0 0.0
2017-Oct-03 23:30N 39°34' E 002°39'0 0.0
2017-Oct-03 23:00N 39°34' E 002°39'0 0.0
2017-Oct-03 22:30N 39°34' E 002°39'0 0.0
2017-Oct-03 21:59N 39°34' E 002°39'0 0.0
2017-Oct-03 21:29N 39°34' E 002°39'0 0.0
2017-Oct-03 20:56N 39°34' E 002°39'0 0.0
2017-Oct-03 20:29N 39°34' E 002°39'0 0.0
2017-Oct-03 19:59N 39°34' E 002°39'0 0.0
2017-Oct-03 19:29N 39°34' E 002°39'0 0.0
2017-Oct-03 18:59N 39°34' E 002°39'0 0.0
2017-Oct-03 18:29N 39°34' E 002°39'0 0.0
2017-Oct-03 18:00N 39°34' E 002°39'0 0.0
2017-Oct-03 17:30N 39°34' E 002°39'0 0.0
2017-Oct-03 17:00N 39°34' E 002°39'0 0.0
2017-Oct-03 16:30N 39°34' E 002°39'0 0.0
2017-Oct-03 16:00N 39°34' E 002°39'0 0.0
2017-Oct-03 15:27N 39°34' E 002°39'0 0.0
2017-Oct-03 15:00N 39°34' E 002°39'0 0.0
2017-Oct-03 14:00N 39°34' E 002°39'0 0.0
2017-Oct-03 13:30N 39°34' E 002°39'0 0.0
2017-Oct-03 13:00N 39°34' E 002°39'0 0.0
2017-Oct-03 12:30N 39°34' E 002°39'0 0.0
2017-Oct-03 12:00N 39°34' E 002°39'0 0.0
2017-Oct-03 11:30N 39°34' E 002°39'0 0.0
2017-Oct-03 11:00N 39°34' E 002°39'0 0.0
2017-Oct-03 10:30N 39°34' E 002°39'0 0.0
2017-Oct-03 10:00N 39°34' E 002°39'0 0.0
2017-Oct-03 09:30N 39°34' E 002°39'0 0.0
2017-Oct-03 09:00N 39°34' E 002°39'0 0.0
2017-Oct-03 08:30N 39°34' E 002°39'0 0.0
2017-Oct-03 08:00N 39°34' E 002°39'0 0.0
2017-Oct-03 07:18N 39°34' E 002°39'0 0.0
2017-Oct-03 07:00N 39°34' E 002°39'0 0.0
2017-Oct-03 06:30N 39°34' E 002°39'0 0.0
2017-Oct-03 06:00N 39°34' E 002°39'0 0.0
2017-Oct-03 05:30N 39°34' E 002°39'0 0.0
2017-Oct-03 05:00N 39°34' E 002°39'0 0.0
2017-Oct-03 04:30N 39°34' E 002°39'0 0.0
2017-Oct-03 04:00N 39°34' E 002°39'0 0.0
2017-Oct-03 03:30N 39°34' E 002°39'0 0.0
2017-Oct-03 03:00N 39°34' E 002°39'0 0.0
2017-Oct-03 02:30N 39°34' E 002°39'0 0.0
2017-Oct-03 02:00N 39°34' E 002°39'0 0.0
2017-Oct-03 01:30N 39°34' E 002°39'0 0.0
2017-Oct-03 01:00N 39°34' E 002°39'0 0.0
2017-Oct-03 00:30N 39°34' E 002°39'0 0.0
2017-Oct-03 00:00N 39°34' E 002°39'0 0.0
2017-Oct-02 23:30N 39°34' E 002°39'0 0.0
2017-Oct-02 23:00N 39°34' E 002°39'0 0.0
2017-Oct-02 22:29N 39°34' E 002°39'0 0.0
2017-Oct-02 21:59N 39°34' E 002°39'0 0.0
2017-Oct-02 21:29N 39°34' E 002°39'0 0.0
2017-Oct-02 20:59N 39°34' E 002°39'0 0.0
2017-Oct-02 20:29N 39°34' E 002°39'0 0.0
2017-Oct-02 19:59N 39°34' E 002°39'0 0.0
2017-Oct-02 19:29N 39°34' E 002°39'0 0.0
2017-Oct-02 18:59N 39°34' E 002°39'0 0.0
2017-Oct-02 18:29N 39°34' E 002°39'0 0.0
2017-Oct-02 17:59N 39°34' E 002°39'0 0.0
2017-Oct-02 17:29N 39°34' E 002°39'0 0.0
2017-Oct-02 16:59N 39°34' E 002°39'0 0.0
2017-Oct-02 16:29N 39°34' E 002°39'0 0.0
2017-Oct-02 16:00N 39°34' E 002°39'0 0.0
2017-Oct-02 15:30N 39°34' E 002°39'0 0.0
2017-Oct-02 15:00N 39°34' E 002°39'0 0.0
2017-Oct-02 14:30N 39°34' E 002°39'0 0.0
2017-Oct-02 14:00N 39°34' E 002°39'0 0.0
2017-Oct-02 13:30N 39°34' E 002°39'0 0.0
2017-Oct-02 13:00N 39°34' E 002°39'0 0.0
2017-Oct-02 12:30N 39°34' E 002°39'0 0.0
2017-Oct-02 12:00N 39°34' E 002°39'0 0.0
2017-Oct-02 11:30N 39°34' E 002°39'0 0.0
2017-Oct-02 11:00N 39°34' E 002°39'0 0.0
2017-Oct-02 10:15N 39°34' E 002°39'0 0.0
2017-Oct-02 10:00N 39°34' E 002°39'0 0.0
2017-Oct-02 09:30N 39°34' E 002°39'0 0.0
2017-Oct-02 09:00N 39°34' E 002°39'0 0.0
2017-Oct-01 14:48N 39°34' E 002°39'0 0.0
2017-Oct-01 14:30N 39°34' E 002°39'0 0.0
2017-Oct-01 13:57N 39°34' E 002°39'0 0.0
2017-Oct-01 13:30N 39°34' E 002°39'0 0.0
2017-Oct-01 13:00N 39°34' E 002°39'0 0.0
2017-Oct-01 12:30N 39°34' E 002°39'0 0.0
2017-Oct-01 12:00N 39°34' E 002°39'0 0.0
2017-Oct-01 11:29N 39°34' E 002°39'0 0.0
2017-Oct-01 10:59N 39°34' E 002°39'0 0.0
2017-Oct-01 10:29N 39°34' E 002°39'0 0.0
2017-Oct-01 09:59N 39°34' E 002°39'0 0.0
2017-Oct-01 09:29N 39°34' E 002°39'0 0.0
2017-Oct-01 08:59N 39°34' E 002°39'0 0.0
2017-Oct-01 08:29N 39°34' E 002°39'0 0.0
2017-Oct-01 07:59N 39°34' E 002°39'0 0.0
2017-Oct-01 07:29N 39°34' E 002°39'0 0.0
2017-Oct-01 06:59N 39°34' E 002°39'0 0.0
2017-Oct-01 06:29N 39°34' E 002°39'0 0.0
2017-Oct-01 05:59N 39°34' E 002°39'0 0.0
2017-Oct-01 05:29N 39°34' E 002°39'0 0.0
2017-Oct-01 05:00N 39°34' E 002°39'0 0.0
2017-Oct-01 04:30N 39°34' E 002°39'0 0.0
2017-Oct-01 04:00N 39°34' E 002°39'0 0.0
2017-Oct-01 03:30N 39°34' E 002°39'0 0.0
2017-Oct-01 02:57N 39°34' E 002°39'0 0.0
2017-Sep-29 12:39N 39°34' E 002°39'0 0.0
2017-Sep-29 12:30N 39°34' E 002°39'0 0.0
2017-Sep-29 12:00N 39°34' E 002°39'0 0.0
2017-Sep-29 11:30N 39°34' E 002°39'0 0.0
2017-Sep-29 11:00N 39°34' E 002°39'0 0.0
2017-Sep-29 10:30N 39°34' E 002°39'0 0.0
2017-Sep-29 10:00N 39°34' E 002°39'0 0.0
2017-Sep-29 09:30N 39°34' E 002°39'0 0.0
2017-Sep-29 09:00N 39°34' E 002°39'0 0.0
2017-Sep-29 08:30N 39°34' E 002°39'0 0.0
2017-Sep-29 08:00N 39°34' E 002°39'0 0.0
2017-Sep-29 07:30N 39°34' E 002°39'0 0.0
2017-Sep-29 07:00N 39°34' E 002°39'0 0.0
2017-Sep-28 22:54N 39°34' E 002°39'0 0.0
2017-Sep-28 22:30N 39°34' E 002°39'0 0.0
2017-Sep-28 22:00N 39°34' E 002°39'0 0.0
2017-Sep-28 21:30N 39°34' E 002°39'0 0.0
2017-Sep-28 20:57N 39°34' E 002°39'0 0.0
2017-Sep-28 20:30N 39°34' E 002°39'0 0.0
2017-Sep-28 20:00N 39°34' E 002°39'0 0.0
2017-Sep-28 19:30N 39°34' E 002°39'0 0.0
2017-Sep-28 18:57N 39°34' E 002°39'0 0.0
2017-Sep-28 18:30N 39°34' E 002°39'0 0.0
2017-Sep-28 18:00N 39°34' E 002°39'0 0.0
2017-Sep-28 17:30N 39°34' E 002°39'0 0.0
2017-Sep-28 17:00N 39°34' E 002°39'0 0.0
2017-Sep-28 16:30N 39°34' E 002°39'0 0.0
2017-Sep-28 15:58N 39°34' E 002°39'0 0.0
2017-Sep-28 15:28N 39°34' E 002°39'0 0.0
2017-Sep-28 14:58N 39°34' E 002°39'0 0.0
2017-Sep-28 14:28N 39°34' E 002°39'0 0.0
2017-Sep-28 13:58N 39°34' E 002°39'0 0.0
2017-Sep-28 13:28N 39°34' E 002°39'0 0.0
2017-Sep-28 12:58N 39°34' E 002°39'0 0.0
2017-Sep-28 12:28N 39°34' E 002°39'0 0.0
2017-Sep-28 11:58N 39°34' E 002°39'0 0.0
2017-Sep-28 11:28N 39°34' E 002°39'0 0.0
2017-Sep-28 10:58N 39°34' E 002°39'0 0.0
2017-Sep-28 10:28N 39°34' E 002°39'0 0.0
2017-Sep-28 09:58N 39°34' E 002°39'0 0.0
2017-Sep-28 09:28N 39°34' E 002°39'0 0.0
2017-Sep-28 08:58N 39°34' E 002°39'0 0.0
2017-Sep-28 08:25N 39°34' E 002°39'0 0.0
2017-Sep-28 07:58N 39°34' E 002°39'0 0.0
2017-Sep-28 07:28N 39°34' E 002°39'0 0.0
2017-Sep-28 06:58N 39°34' E 002°39'0 0.0
2017-Sep-28 06:28N 39°34' E 002°39'0 0.0
2017-Sep-28 05:58N 39°34' E 002°39'0 0.0
2017-Sep-28 05:28N 39°34' E 002°39'0 0.0
2017-Sep-28 04:58N 39°34' E 002°39'0 0.0
2017-Sep-28 04:28N 39°34' E 002°39'0 0.0
2017-Sep-28 03:58N 39°34' E 002°39'0 0.0
2017-Sep-28 03:28N 39°34' E 002°39'0 0.0
2017-Sep-28 02:58N 39°34' E 002°39'0 0.0
2017-Sep-28 02:28N 39°34' E 002°39'0 0.0
2017-Sep-28 01:58N 39°34' E 002°39'0 0.0
2017-Sep-28 01:28N 39°34' E 002°39'0 0.0
2017-Sep-28 00:58N 39°34' E 002°39'0 0.0
2017-Sep-28 00:28N 39°34' E 002°39'0 0.0
2017-Sep-27 23:58N 39°34' E 002°39'0 0.0
2017-Sep-27 23:28N 39°34' E 002°39'0 0.0
2017-Sep-27 22:58N 39°34' E 002°39'0 0.0
2017-Sep-27 22:28N 39°34' E 002°39'0 0.0
2017-Sep-27 21:58N 39°34' E 002°39'0 0.0
2017-Sep-27 21:28N 39°34' E 002°39'0 0.0
2017-Sep-27 21:00N 39°34' E 002°39'0 0.0
2017-Sep-27 20:28N 39°34' E 002°39'0 0.0
2017-Sep-27 19:58N 39°34' E 002°39'0 0.0
2017-Sep-27 19:28N 39°34' E 002°39'0 0.0
2017-Sep-27 18:58N 39°34' E 002°39'0 0.0
2017-Sep-27 18:28N 39°34' E 002°39'0 0.0
2017-Sep-27 17:58N 39°34' E 002°39'0 0.0
2017-Sep-27 17:28N 39°34' E 002°39'0 0.0
2017-Sep-27 16:58N 39°34' E 002°39'0 0.0
2017-Sep-27 16:28N 39°34' E 002°39'0 0.0
2017-Sep-27 15:58N 39°34' E 002°39'0 0.0
2017-Sep-27 15:28N 39°34' E 002°39'0 0.0
2017-Sep-27 14:58N 39°34' E 002°39'0 0.0
2017-Sep-27 14:28N 39°34' E 002°39'0 0.0
2017-Sep-27 13:58N 39°34' E 002°39'0 0.0
2017-Sep-27 13:28N 39°34' E 002°39'0 0.0
2017-Sep-27 12:58N 39°34' E 002°39'0 0.0
2017-Sep-27 12:28N 39°34' E 002°39'0 0.0
2017-Sep-27 11:58N 39°34' E 002°39'0 0.0
2017-Sep-27 11:28N 39°34' E 002°39'0 0.0
2017-Sep-27 10:58N 39°34' E 002°39'0 0.0
2017-Sep-27 10:28N 39°34' E 002°39'0 0.0
2017-Sep-27 09:58N 39°34' E 002°39'0 0.0
2017-Sep-27 09:28N 39°34' E 002°39'0 0.0
2017-Sep-27 08:58N 39°34' E 002°39'0 0.0
2017-Sep-27 08:28N 39°34' E 002°39'0 0.0
2017-Sep-27 07:58N 39°34' E 002°39'0 0.0
2017-Sep-27 07:28N 39°34' E 002°39'0 0.0
2017-Sep-27 06:58N 39°34' E 002°39'0 0.0
2017-Sep-27 06:28N 39°34' E 002°39'0 0.0
2017-Sep-27 05:58N 39°34' E 002°39'0 0.0
2017-Sep-27 05:28N 39°34' E 002°39'0 0.0
2017-Sep-27 04:58N 39°34' E 002°39'0 0.0
2017-Sep-27 04:28N 39°34' E 002°39'0 0.0
2017-Sep-27 03:58N 39°34' E 002°39'0 0.0
2017-Sep-27 03:28N 39°34' E 002°39'0 0.0
2017-Sep-27 02:58N 39°34' E 002°39'0 0.0
2017-Sep-27 02:28N 39°34' E 002°39'0 0.0
2017-Sep-27 01:58N 39°34' E 002°39'0 0.0
2017-Sep-27 01:28N 39°34' E 002°39'0 0.0
2017-Sep-27 00:58N 39°34' E 002°39'0 0.0
2017-Sep-27 00:28N 39°34' E 002°39'0 0.0
2017-Sep-26 23:58N 39°34' E 002°39'0 0.0
2017-Sep-26 23:28N 39°34' E 002°39'0 0.0
2017-Sep-26 22:58N 39°34' E 002°39'0 0.0
2017-Sep-26 22:28N 39°34' E 002°39'0 0.0
2017-Sep-26 21:58N 39°34' E 002°39'0 0.0
2017-Sep-26 21:28N 39°34' E 002°39'0 0.0
2017-Sep-26 20:58N 39°34' E 002°39'0 0.0
2017-Sep-26 20:28N 39°34' E 002°39'0 0.0
2017-Sep-26 19:58N 39°34' E 002°39'0 0.0
2017-Sep-26 19:28N 39°34' E 002°39'0 0.0
2017-Sep-26 18:58N 39°34' E 002°39'0 0.0
2017-Sep-26 18:28N 39°34' E 002°39'0 0.0
2017-Sep-26 17:58N 39°34' E 002°39'  
Track history (hours):
 
Tides and Currents Weather Stations Pressure Air Temp Water Temp Dewpoint Dewpoint Depression Visibility Wind Speed Wind Dir Waves Ship Positions

Sirma

Last reported at 2017-Oct-06 17:49 UTC. Time now 2017-Oct-17 17:18 UTC.
Position N 39°34' E 002°39'.
Warning: this ship's position is 10 days out of date.

Length 18 m.

Type: Pleasure craft. MMSI: 306053000.

Date/timePositionNaut miles runAvg speedWind from/ knotsBaromVisibWave heightAir tempDewpointWater temp
2017-Oct-06 17:49N 39°34' E 002°39'0 0.0
2017-Oct-06 17:28N 39°34' E 002°39'0 0.0
2017-Oct-06 16:58N 39°34' E 002°39'0 0.0
2017-Oct-06 16:28N 39°34' E 002°39'1 2.3
2017-Oct-06 16:00N 39°33' E 002°38'3 5.2
2017-Oct-06 15:30N 39°31' E 002°36'3 5.2
2017-Oct-06 15:00N 39°29' E 002°34'2 0.8
2017-Oct-06 12:27N 39°28' E 002°31'2 3.6
2017-Oct-06 12:00N 39°28' E 002°33'3 5.9
2017-Oct-06 11:30N 39°27' E 002°37'2 4.3
2017-Oct-06 11:00N 39°27' E 002°40'4 7.5
2017-Oct-06 10:30N 39°30' E 002°40'2 4.8
2017-Oct-06 10:00N 39°33' E 002°39'1 2.5
2017-Oct-06 09:29N 39°34' E 002°39'0 0.0
2017-Oct-06 08:59N 39°34' E 002°39'0 0.0
2017-Oct-06 08:29N 39°34' E 002°39'0 0.0
2017-Oct-06 07:59N 39°34' E 002°39'0 0.0
2017-Oct-06 07:29N 39°34' E 002°39'0 0.0
2017-Oct-06 06:59N 39°34' E 002°39'0 0.0
2017-Oct-06 06:29N 39°34' E 002°39'0 0.0
2017-Oct-06 05:59N 39°34' E 002°39'0 0.0
2017-Oct-06 05:29N 39°34' E 002°39'0 0.0
2017-Oct-06 04:59N 39°34' E 002°39'0 0.0
2017-Oct-06 04:29N 39°34' E 002°39'0 0.0
2017-Oct-06 03:59N 39°34' E 002°39'0 0.0
2017-Oct-06 03:29N 39°34' E 002°39'0 0.0
2017-Oct-06 02:59N 39°34' E 002°39'0 0.0
2017-Oct-06 02:29N 39°34' E 002°39'0 0.0
2017-Oct-06 01:59N 39°34' E 002°39'0 0.0
2017-Oct-06 01:29N 39°34' E 002°39'0 0.0
2017-Oct-06 00:59N 39°34' E 002°39'0 0.0
2017-Oct-06 00:29N 39°34' E 002°39'0 0.0
2017-Oct-05 23:59N 39°34' E 002°39'0 0.0
2017-Oct-05 23:29N 39°34' E 002°39'0 0.0
2017-Oct-05 22:59N 39°34' E 002°39'0 0.0
2017-Oct-05 22:29N 39°34' E 002°39'0 0.0
2017-Oct-05 21:56N 39°34' E 002°39'0 0.0
2017-Oct-05 21:29N 39°34' E 002°39'0 0.0
2017-Oct-05 20:59N 39°34' E 002°39'0 0.0
2017-Oct-05 20:29N 39°34' E 002°39'0 0.0
2017-Oct-05 19:59N 39°34' E 002°39'0 0.0
2017-Oct-05 19:29N 39°34' E 002°39'0 0.0
2017-Oct-05 18:59N 39°34' E 002°39'0 0.0
2017-Oct-05 18:29N 39°34' E 002°39'0 0.0
2017-Oct-05 17:59N 39°34' E 002°39'0 0.0
2017-Oct-05 17:29N 39°34' E 002°39'0 0.0
2017-Oct-05 16:59N 39°34' E 002°39'0 0.0
2017-Oct-05 15:30N 39°34' E 002°39'0 0.1
2017-Oct-05 15:00N 39°34' E 002°39'0 0.1
2017-Oct-05 14:30N 39°34' E 002°39'0 0.1
2017-Oct-05 14:00N 39°34' E 002°39'0 0.0
2017-Oct-05 13:07N 39°34' E 002°39'0 0.0
2017-Oct-05 12:58N 39°34' E 002°39'0 0.0
2017-Oct-05 12:28N 39°34' E 002°39'0 0.0
2017-Oct-05 11:58N 39°34' E 002°39'0 0.0
2017-Oct-05 11:28N 39°34' E 002°39'0 0.0
2017-Oct-05 10:58N 39°34' E 002°39'0 0.0
2017-Oct-05 10:28N 39°34' E 002°39'0 0.0
2017-Oct-05 09:58N 39°34' E 002°39'0 0.0
2017-Oct-05 09:28N 39°34' E 002°39'0 0.0
2017-Oct-05 08:58N 39°34' E 002°39'0 0.0
2017-Oct-05 08:28N 39°34' E 002°39'0 0.0
2017-Oct-05 07:58N 39°34' E 002°39'0 0.0
2017-Oct-05 07:28N 39°34' E 002°39'0 0.0
2017-Oct-05 06:58N 39°34' E 002°39'0 0.0
2017-Oct-05 06:28N 39°34' E 002°39'0 0.0
2017-Oct-05 05:55N 39°34' E 002°39'0 0.0
2017-Oct-05 05:28N 39°34' E 002°39'0 0.0
2017-Oct-05 04:58N 39°34' E 002°39'0 0.0
2017-Oct-05 04:28N 39°34' E 002°39'0 0.0
2017-Oct-05 03:58N 39°34' E 002°39'0 0.0
2017-Oct-05 03:28N 39°34' E 002°39'0 0.0
2017-Oct-05 02:58N 39°34' E 002°39'0 0.0
2017-Oct-05 02:28N 39°34' E 002°39'0 0.0
2017-Oct-05 01:58N 39°34' E 002°39'0 0.0
2017-Oct-05 01:28N 39°34' E 002°39'0 0.0
2017-Oct-05 00:58N 39°34' E 002°39'0 0.0
2017-Oct-05 00:28N 39°34' E 002°39'0 0.0
2017-Oct-04 23:58N 39°34' E 002°39'0 0.0
2017-Oct-04 23:28N 39°34' E 002°39'0 0.0
2017-Oct-04 22:58N 39°34' E 002°39'0 0.0
2017-Oct-04 22:28N 39°34' E 002°39'0 0.0
2017-Oct-04 21:58N 39°34' E 002°39'0 0.0
2017-Oct-04 21:28N 39°34' E 002°39'0 0.0
2017-Oct-04 20:59N 39°34' E 002°39'0 0.0
2017-Oct-04 20:29N 39°34' E 002°39'0 0.0
2017-Oct-04 19:59N 39°34' E 002°39'0 0.0
2017-Oct-04 19:29N 39°34' E 002°39'0 0.0
2017-Oct-04 18:59N 39°34' E 002°39'0 0.0
2017-Oct-04 18:28N 39°34' E 002°39'0 0.0
2017-Oct-04 17:58N 39°34' E 002°39'0 0.0
2017-Oct-04 17:29N 39°34' E 002°39'0 0.0
2017-Oct-04 16:59N 39°34' E 002°39'0 0.0
2017-Oct-04 16:29N 39°34' E 002°39'0 0.0
2017-Oct-04 15:59N 39°34' E 002°39'0 0.0
2017-Oct-04 15:29N 39°34' E 002°39'0 0.0
2017-Oct-04 14:59N 39°34' E 002°39'0 0.0
2017-Oct-04 14:29N 39°34' E 002°39'0 0.0
2017-Oct-04 14:01N 39°34' E 002°39'0 0.0
2017-Oct-04 13:28N 39°34' E 002°39'0 0.0
2017-Oct-04 13:01N 39°34' E 002°39'0 0.0
2017-Oct-04 12:30N 39°34' E 002°39'0 0.0
2017-Oct-04 12:00N 39°34' E 002°39'0 0.0
2017-Oct-04 11:30N 39°34' E 002°39'0 0.0
2017-Oct-04 11:00N 39°34' E 002°39'0 0.0
2017-Oct-04 10:30N 39°34' E 002°39'0 0.0
2017-Oct-04 10:00N 39°34' E 002°39'0 0.0
2017-Oct-04 09:30N 39°34' E 002°39'0 0.0
2017-Oct-04 09:00N 39°34' E 002°39'0 0.0
2017-Oct-04 08:30N 39°34' E 002°39'0 0.0
2017-Oct-04 08:00N 39°34' E 002°39'0 0.0
2017-Oct-04 07:30N 39°34' E 002°39'0 0.0
2017-Oct-04 07:00N 39°34' E 002°39'0 0.0
2017-Oct-04 06:30N 39°34' E 002°39'0 0.0
2017-Oct-04 06:00N 39°34' E 002°39'0 0.0
2017-Oct-04 05:30N 39°34' E 002°39'0 0.0
2017-Oct-04 05:00N 39°34' E 002°39'0 0.0
2017-Oct-04 04:30N 39°34' E 002°39'0 0.0
2017-Oct-04 04:00N 39°34' E 002°39'0 0.0
2017-Oct-04 03:30N 39°34' E 002°39'0 0.0
2017-Oct-04 03:00N 39°34' E 002°39'0 0.0
2017-Oct-04 02:30N 39°34' E 002°39'0 0.0
2017-Oct-04 02:00N 39°34' E 002°39'0 0.0
2017-Oct-04 01:30N 39°34' E 002°39'0 0.0
2017-Oct-04 01:00N 39°34' E 002°39'0 0.0
2017-Oct-04 00:30N 39°34' E 002°39'0 0.0
2017-Oct-04 00:00N 39°34' E 002°39'0 0.0
2017-Oct-03 23:30N 39°34' E 002°39'0 0.0
2017-Oct-03 23:00N 39°34' E 002°39'0 0.0
2017-Oct-03 22:30N 39°34' E 002°39'0 0.0
2017-Oct-03 21:59N 39°34' E 002°39'0 0.0
2017-Oct-03 21:29N 39°34' E 002°39'0 0.0
2017-Oct-03 20:56N 39°34' E 002°39'0 0.0
2017-Oct-03 20:29N 39°34' E 002°39'0 0.0
2017-Oct-03 19:59N 39°34' E 002°39'0 0.0
2017-Oct-03 19:29N 39°34' E 002°39'0 0.0
2017-Oct-03 18:59N 39°34' E 002°39'0 0.0
2017-Oct-03 18:29N 39°34' E 002°39'0 0.0
2017-Oct-03 18:00N 39°34' E 002°39'0 0.0
2017-Oct-03 17:30N 39°34' E 002°39'0 0.0
2017-Oct-03 17:00N 39°34' E 002°39'0 0.0
2017-Oct-03 16:30N 39°34' E 002°39'0 0.0
2017-Oct-03 16:00N 39°34' E 002°39'0 0.0
2017-Oct-03 15:27N 39°34' E 002°39'0 0.0
2017-Oct-03 15:00N 39°34' E 002°39'0 0.0
2017-Oct-03 14:00N 39°34' E 002°39'0 0.0
2017-Oct-03 13:30N 39°34' E 002°39'0 0.0
2017-Oct-03 13:00N 39°34' E 002°39'0 0.0
2017-Oct-03 12:30N 39°34' E 002°39'0 0.0
2017-Oct-03 12:00N 39°34' E 002°39'0 0.0
2017-Oct-03 11:30N 39°34' E 002°39'0 0.0
2017-Oct-03 11:00N 39°34' E 002°39'0 0.0
2017-Oct-03 10:30N 39°34' E 002°39'0 0.0
2017-Oct-03 10:00N 39°34' E 002°39'0 0.0
2017-Oct-03 09:30N 39°34' E 002°39'0 0.0
2017-Oct-03 09:00N 39°34' E 002°39'0 0.0
2017-Oct-03 08:30N 39°34' E 002°39'0 0.0
2017-Oct-03 08:00N 39°34' E 002°39'0 0.0
2017-Oct-03 07:18N 39°34' E 002°39'0 0.0
2017-Oct-03 07:00N 39°34' E 002°39'0 0.0
2017-Oct-03 06:30N 39°34' E 002°39'0 0.0
2017-Oct-03 06:00N 39°34' E 002°39'0 0.0
2017-Oct-03 05:30N 39°34' E 002°39'0 0.0
2017-Oct-03 05:00N 39°34' E 002°39'0 0.0
2017-Oct-03 04:30N 39°34' E 002°39'0 0.0
2017-Oct-03 04:00N 39°34' E 002°39'0 0.0
2017-Oct-03 03:30N 39°34' E 002°39'0 0.0
2017-Oct-03 03:00N 39°34' E 002°39'0 0.0
2017-Oct-03 02:30N 39°34' E 002°39'0 0.0
2017-Oct-03 02:00N 39°34' E 002°39'0 0.0
2017-Oct-03 01:30N 39°34' E 002°39'0 0.0
2017-Oct-03 01:00N 39°34' E 002°39'0 0.0
2017-Oct-03 00:30N 39°34' E 002°39'0 0.0
2017-Oct-03 00:00N 39°34' E 002°39'0 0.0
2017-Oct-02 23:30N 39°34' E 002°39'0 0.0
2017-Oct-02 23:00N 39°34' E 002°39'0 0.0
2017-Oct-02 22:29N 39°34' E 002°39'0 0.0
2017-Oct-02 21:59N 39°34' E 002°39'0 0.0
2017-Oct-02 21:29N 39°34' E 002°39'0 0.0
2017-Oct-02 20:59N 39°34' E 002°39'0 0.0
2017-Oct-02 20:29N 39°34' E 002°39'0 0.0
2017-Oct-02 19:59N 39°34' E 002°39'0 0.0
2017-Oct-02 19:29N 39°34' E 002°39'0 0.0
2017-Oct-02 18:59N 39°34' E 002°39'0 0.0
2017-Oct-02 18:29N 39°34' E 002°39'0 0.0
2017-Oct-02 17:59N 39°34' E 002°39'0 0.0
2017-Oct-02 17:29N 39°34' E 002°39'0 0.0
2017-Oct-02 16:59N 39°34' E 002°39'0 0.0
2017-Oct-02 16:29N 39°34' E 002°39'0 0.0
2017-Oct-02 16:00N 39°34' E 002°39'0 0.0
2017-Oct-02 15:30N 39°34' E 002°39'0 0.0
2017-Oct-02 15:00N 39°34' E 002°39'0 0.0
2017-Oct-02 14:30N 39°34' E 002°39'0 0.0
2017-Oct-02 14:00N 39°34' E 002°39'0 0.0
2017-Oct-02 13:30N 39°34' E 002°39'0 0.0
2017-Oct-02 13:00N 39°34' E 002°39'0 0.0
2017-Oct-02 12:30N 39°34' E 002°39'0 0.0
2017-Oct-02 12:00N 39°34' E 002°39'0 0.0
2017-Oct-02 11:30N 39°34' E 002°39'0 0.0
2017-Oct-02 11:00N 39°34' E 002°39'0 0.0
2017-Oct-02 10:15N 39°34' E 002°39'0 0.0
2017-Oct-02 10:00N 39°34' E 002°39'0 0.0
2017-Oct-02 09:30N 39°34' E 002°39'0 0.0
2017-Oct-02 09:00N 39°34' E 002°39'0 0.0
2017-Oct-01 14:48N 39°34' E 002°39'0 0.0
2017-Oct-01 14:30N 39°34' E 002°39'0 0.0
2017-Oct-01 13:57N 39°34' E 002°39'0 0.0
2017-Oct-01 13:30N 39°34' E 002°39'0 0.0
2017-Oct-01 13:00N 39°34' E 002°39'0 0.0
2017-Oct-01 12:30N 39°34' E 002°39'0 0.0
2017-Oct-01 12:00N 39°34' E 002°39'0 0.0
2017-Oct-01 11:29N 39°34' E 002°39'0 0.0
2017-Oct-01 10:59N 39°34' E 002°39'0 0.0
2017-Oct-01 10:29N 39°34' E 002°39'0 0.0
2017-Oct-01 09:59N 39°34' E 002°39'0 0.0
2017-Oct-01 09:29N 39°34' E 002°39'0 0.0
2017-Oct-01 08:59N 39°34' E 002°39'0 0.0
2017-Oct-01 08:29N 39°34' E 002°39'0 0.0
2017-Oct-01 07:59N 39°34' E 002°39'0 0.0
2017-Oct-01 07:29N 39°34' E 002°39'0 0.0
2017-Oct-01 06:59N 39°34' E 002°39'0 0.0
2017-Oct-01 06:29N 39°34' E 002°39'0 0.0
2017-Oct-01 05:59N 39°34' E 002°39'0 0.0
2017-Oct-01 05:29N 39°34' E 002°39'0 0.0
2017-Oct-01 05:00N 39°34' E 002°39'0 0.0
2017-Oct-01 04:30N 39°34' E 002°39'0 0.0
2017-Oct-01 04:00N 39°34' E 002°39'0 0.0
2017-Oct-01 03:30N 39°34' E 002°39'0 0.0
2017-Oct-01 02:57N 39°34' E 002°39'0 0.0
2017-Sep-29 12:39N 39°34' E 002°39'0 0.0
2017-Sep-29 12:30N 39°34' E 002°39'0 0.0
2017-Sep-29 12:00N 39°34' E 002°39'0 0.0
2017-Sep-29 11:30N 39°34' E 002°39'0 0.0
2017-Sep-29 11:00N 39°34' E 002°39'0 0.0
2017-Sep-29 10:30N 39°34' E 002°39'0 0.0
2017-Sep-29 10:00N 39°34' E 002°39'0 0.0
2017-Sep-29 09:30N 39°34' E 002°39'0 0.0
2017-Sep-29 09:00N 39°34' E 002°39'0 0.0
2017-Sep-29 08:30N 39°34' E 002°39'0 0.0
2017-Sep-29 08:00N 39°34' E 002°39'0 0.0
2017-Sep-29 07:30N 39°34' E 002°39'0 0.0
2017-Sep-29 07:00N 39°34' E 002°39'0 0.0
2017-Sep-28 22:54N 39°34' E 002°39'0 0.0
2017-Sep-28 22:30N 39°34' E 002°39'0 0.0
2017-Sep-28 22:00N 39°34' E 002°39'0 0.0
2017-Sep-28 21:30N 39°34' E 002°39'0 0.0
2017-Sep-28 20:57N 39°34' E 002°39'0 0.0
2017-Sep-28 20:30N 39°34' E 002°39'0 0.0
2017-Sep-28 20:00N 39°34' E 002°39'0 0.0
2017-Sep-28 19:30N 39°34' E 002°39'0 0.0
2017-Sep-28 18:57N 39°34' E 002°39'0 0.0
2017-Sep-28 18:30N 39°34' E 002°39'0 0.0
2017-Sep-28 18:00N 39°34' E 002°39'0 0.0
2017-Sep-28 17:30N 39°34' E 002°39'0 0.0
2017-Sep-28 17:00N 39°34' E 002°39'0 0.0
2017-Sep-28 16:30N 39°34' E 002°39'0 0.0
2017-Sep-28 15:58N 39°34' E 002°39'0 0.0
2017-Sep-28 15:28N 39°34' E 002°39'0 0.0
2017-Sep-28 14:58N 39°34' E 002°39'0 0.0
2017-Sep-28 14:28N 39°34' E 002°39'0 0.0
2017-Sep-28 13:58N 39°34' E 002°39'0 0.0
2017-Sep-28 13:28N 39°34' E 002°39'0 0.0
2017-Sep-28 12:58N 39°34' E 002°39'0 0.0
2017-Sep-28 12:28N 39°34' E 002°39'0 0.0
2017-Sep-28 11:58N 39°34' E 002°39'0 0.0
2017-Sep-28 11:28N 39°34' E 002°39'0 0.0
2017-Sep-28 10:58N 39°34' E 002°39'0 0.0
2017-Sep-28 10:28N 39°34' E 002°39'0 0.0
2017-Sep-28 09:58N 39°34' E 002°39'0 0.0
2017-Sep-28 09:28N 39°34' E 002°39'0 0.0
2017-Sep-28 08:58N 39°34' E 002°39'0 0.0
2017-Sep-28 08:25N 39°34' E 002°39'0 0.0
2017-Sep-28 07:58N 39°34' E 002°39'0 0.0
2017-Sep-28 07:28N 39°34' E 002°39'0 0.0
2017-Sep-28 06:58N 39°34' E 002°39'0 0.0
2017-Sep-28 06:28N 39°34' E 002°39'0 0.0
2017-Sep-28 05:58N 39°34' E 002°39'0 0.0
2017-Sep-28 05:28N 39°34' E 002°39'0 0.0
2017-Sep-28 04:58N 39°34' E 002°39'0 0.0
2017-Sep-28 04:28N 39°34' E 002°39'0 0.0
2017-Sep-28 03:58N 39°34' E 002°39'0 0.0
2017-Sep-28 03:28N 39°34' E 002°39'0 0.0
2017-Sep-28 02:58N 39°34' E 002°39'0 0.0
2017-Sep-28 02:28N 39°34' E 002°39'0 0.0
2017-Sep-28 01:58N 39°34' E 002°39'0 0.0
2017-Sep-28 01:28N 39°34' E 002°39'0 0.0
2017-Sep-28 00:58N 39°34' E 002°39'0 0.0
2017-Sep-28 00:28N 39°34' E 002°39'0 0.0
2017-Sep-27 23:58N 39°34' E 002°39'0 0.0
2017-Sep-27 23:28N 39°34' E 002°39'0 0.0
2017-Sep-27 22:58N 39°34' E 002°39'0 0.0
2017-Sep-27 22:28N 39°34' E 002°39'0 0.0
2017-Sep-27 21:58N 39°34' E 002°39'0 0.0
2017-Sep-27 21:28N 39°34' E 002°39'0 0.0
2017-Sep-27 21:00N 39°34' E 002°39'0 0.0
2017-Sep-27 20:28N 39°34' E 002°39'0 0.0
2017-Sep-27 19:58N 39°34' E 002°39'0 0.0
2017-Sep-27 19:28N 39°34' E 002°39'0 0.0
2017-Sep-27 18:58N 39°34' E 002°39'0 0.0
2017-Sep-27 18:28N 39°34' E 002°39'0 0.0
2017-Sep-27 17:58N 39°34' E 002°39'0 0.0
2017-Sep-27 17:28N 39°34' E 002°39'0 0.0
2017-Sep-27 16:58N 39°34' E 002°39'0 0.0
2017-Sep-27 16:28N 39°34' E 002°39'0 0.0
2017-Sep-27 15:58N 39°34' E 002°39'0 0.0
2017-Sep-27 15:28N 39°34' E 002°39'0 0.0
2017-Sep-27 14:58N 39°34' E 002°39'0 0.0
2017-Sep-27 14:28N 39°34' E 002°39'0 0.0
2017-Sep-27 13:58N 39°34' E 002°39'0 0.0
2017-Sep-27 13:28N 39°34' E 002°39'0 0.0
2017-Sep-27 12:58N 39°34' E 002°39'0 0.0
2017-Sep-27 12:28N 39°34' E 002°39'0 0.0
2017-Sep-27 11:58N 39°34' E 002°39'0 0.0
2017-Sep-27 11:28N 39°34' E 002°39'0 0.0
2017-Sep-27 10:58N 39°34' E 002°39'0 0.0
2017-Sep-27 10:28N 39°34' E 002°39'0 0.0
2017-Sep-27 09:58N 39°34' E 002°39'0 0.0
2017-Sep-27 09:28N 39°34' E 002°39'0 0.0
2017-Sep-27 08:58N 39°34' E 002°39'0 0.0
2017-Sep-27 08:28N 39°34' E 002°39'0 0.0
2017-Sep-27 07:58N 39°34' E 002°39'0 0.0
2017-Sep-27 07:28N 39°34' E 002°39'0 0.0
2017-Sep-27 06:58N 39°34' E 002°39'0 0.0
2017-Sep-27 06:28N 39°34' E 002°39'0 0.0
2017-Sep-27 05:58N 39°34' E 002°39'0 0.0
2017-Sep-27 05:28N 39°34' E 002°39'0 0.0
2017-Sep-27 04:58N 39°34' E 002°39'0 0.0
2017-Sep-27 04:28N 39°34' E 002°39'0 0.0
2017-Sep-27 03:58N 39°34' E 002°39'0 0.0
2017-Sep-27 03:28N 39°34' E 002°39'0 0.0
2017-Sep-27 02:58N 39°34' E 002°39'0 0.0
2017-Sep-27 02:28N 39°34' E 002°39'0 0.0
2017-Sep-27 01:58N 39°34' E 002°39'0 0.0
2017-Sep-27 01:28N 39°34' E 002°39'0 0.0
2017-Sep-27 00:58N 39°34' E 002°39'0 0.0
2017-Sep-27 00:28N 39°34' E 002°39'0 0.0
2017-Sep-26 23:58N 39°34' E 002°39'0 0.0
2017-Sep-26 23:28N 39°34' E 002°39'0 0.0
2017-Sep-26 22:58N 39°34' E 002°39'0 0.0
2017-Sep-26 22:28N 39°34' E 002°39'0 0.0
2017-Sep-26 21:58N 39°34' E 002°39'0 0.0
2017-Sep-26 21:28N 39°34' E 002°39'0 0.0
2017-Sep-26 20:58N 39°34' E 002°39'0 0.0
2017-Sep-26 20:28N 39°34' E 002°39'0 0.0
2017-Sep-26 19:58N 39°34' E 002°39'0 0.0
2017-Sep-26 19:28N 39°34' E 002°39'0 0.0
2017-Sep-26 18:58N 39°34' E 002°39'0 0.0
2017-Sep-26 18:28N 39°34' E 002°39'0 0.0
2017-Sep-26 17:58N 39°34' E 002°39'  

Dump ship's entire track history